createdAt,value
2019-01-17T00:01:44.921Z,2.67
2019-01-17T00:04:26.188Z,2.77
2019-01-17T00:07:01.230Z,4.33
2019-01-17T00:09:33.065Z,3.00
2019-01-17T00:12:01.971Z,3.33
2019-01-17T00:14:39.767Z,3.93
2019-01-17T00:17:17.569Z,3.43
2019-01-17T00:19:46.492Z,3.27
2019-01-17T00:22:21.605Z,4.07
2019-01-17T00:25:06.832Z,3.40
2019-01-17T00:27:41.682Z,3.73
2019-01-17T00:30:17.804Z,3.83
2019-01-17T00:32:46.733Z,4.17
2019-01-17T00:35:32.011Z,3.93
2019-01-17T00:38:18.934Z,3.77
2019-01-17T00:40:57.063Z,4.00
2019-01-17T00:43:42.280Z,3.50
2019-01-17T00:46:13.879Z,4.47
2019-01-17T00:48:42.854Z,4.73
2019-01-17T00:51:29.281Z,4.40
2019-01-17T00:53:58.172Z,6.20
2019-01-17T00:56:27.070Z,6.03
2019-01-17T00:59:04.916Z,4.60
2019-01-17T01:01:33.794Z,5.17
2019-01-17T01:04:05.383Z,5.17
2019-01-17T01:06:49.415Z,4.07
2019-01-17T01:09:30.713Z,6.23
2019-01-17T01:12:14.864Z,4.00
2019-01-17T01:14:46.474Z,4.30
2019-01-17T01:17:31.870Z,4.80
2019-01-17T01:20:06.350Z,4.13
2019-01-17T01:22:44.171Z,4.80
2019-01-17T01:25:24.939Z,3.90
2019-01-17T01:27:59.734Z,5.13
2019-01-17T01:30:28.639Z,5.50
2019-01-17T01:33:12.738Z,5.27
2019-01-17T01:35:47.555Z,5.10
2019-01-17T01:38:34.639Z,4.20
2019-01-17T01:41:21.789Z,4.27
2019-01-17T01:43:50.690Z,4.53
2019-01-17T01:46:19.619Z,3.83
2019-01-17T01:48:48.526Z,4.30
2019-01-17T01:51:29.750Z,4.60
2019-01-17T01:53:57.014Z,4.93
2019-01-17T01:56:24.299Z,3.77
2019-01-17T01:58:51.630Z,4.20
2019-01-17T02:01:18.899Z,3.33
2019-01-17T02:03:46.177Z,3.67
2019-01-17T02:06:13.434Z,3.83
2019-01-17T02:08:40.718Z,3.70
2019-01-17T02:11:07.967Z,2.73
2019-01-17T02:13:36.013Z,3.63
2019-01-17T02:16:03.389Z,3.30
2019-01-17T02:18:30.691Z,2.77
2019-01-17T02:20:57.958Z,3.47
2019-01-17T02:23:25.230Z,3.07
2019-01-17T02:25:52.506Z,2.53
2019-01-17T02:28:19.772Z,2.90
2019-01-17T02:30:47.046Z,3.80
2019-01-17T02:33:14.318Z,3.00
2019-01-17T02:35:41.574Z,2.23
2019-01-17T02:38:08.851Z,4.23
2019-01-17T02:40:36.101Z,3.60
2019-01-17T02:43:03.441Z,3.30
2019-01-17T02:45:30.710Z,3.33
2019-01-17T02:47:57.973Z,3.30
2019-01-17T02:50:25.302Z,3.40
2019-01-17T02:52:52.582Z,4.70
2019-01-17T02:55:19.929Z,3.50
2019-01-17T02:57:47.197Z,3.07
2019-01-17T03:00:16.001Z,3.63
2019-01-17T03:02:43.302Z,3.90
2019-01-17T03:05:10.630Z,3.00
2019-01-17T03:07:38.559Z,2.90
2019-01-17T03:10:10.270Z,2.90
2019-01-17T03:12:37.526Z,3.20
2019-01-17T03:15:06.336Z,4.30
2019-01-17T03:17:33.584Z,3.00
2019-01-17T03:20:00.846Z,2.77
2019-01-17T03:22:28.121Z,3.03
2019-01-17T03:24:55.403Z,2.73
2019-01-17T03:27:22.678Z,2.60
2019-01-17T03:29:49.939Z,3.57
2019-01-17T03:32:17.216Z,3.17
2019-01-17T03:34:44.476Z,3.97
2019-01-17T03:37:11.763Z,3.87
2019-01-17T03:39:39.011Z,2.63
2019-01-17T03:42:06.291Z,3.43
2019-01-17T03:44:33.530Z,3.03
2019-01-17T03:47:00.804Z,3.53
2019-01-17T03:49:28.048Z,3.00
2019-01-17T03:51:55.301Z,2.93
2019-01-17T03:54:22.582Z,3.10
2019-01-17T03:56:49.851Z,3.50
2019-01-17T03:59:17.147Z,3.73
2019-01-17T04:01:44.419Z,3.50
2019-01-17T04:04:11.698Z,3.60
2019-01-17T04:06:38.961Z,3.37
2019-01-17T04:09:07.762Z,3.83
2019-01-17T04:11:35.030Z,3.57
2019-01-17T04:14:02.298Z,3.07
2019-01-17T04:16:29.564Z,3.63
2019-01-17T04:18:56.803Z,3.23
2019-01-17T04:21:24.084Z,3.67
2019-01-17T04:23:51.350Z,3.17
2019-01-17T04:26:18.630Z,2.50
2019-01-17T04:28:45.910Z,3.57
2019-01-17T04:31:13.182Z,4.17
2019-01-17T04:33:40.451Z,3.20
2019-01-17T04:36:07.774Z,3.10
2019-01-17T04:38:35.049Z,3.23
2019-01-17T04:41:02.319Z,2.87
2019-01-17T04:43:29.577Z,3.60
2019-01-17T04:45:56.909Z,3.57
2019-01-17T04:48:24.186Z,3.20
2019-01-17T04:50:51.474Z,4.33
2019-01-17T04:53:18.730Z,4.23
2019-01-17T04:55:46.000Z,3.03
2019-01-17T04:58:13.276Z,3.03
2019-01-17T05:00:40.516Z,2.87
2019-01-17T05:03:07.775Z,3.07
2019-01-17T05:05:35.035Z,3.60
2019-01-17T05:08:02.291Z,3.07
2019-01-17T05:10:29.559Z,3.20
2019-01-17T05:12:56.839Z,3.13
2019-01-17T05:15:24.079Z,3.20
2019-01-17T05:17:51.361Z,3.13
2019-01-17T05:20:18.671Z,2.40
2019-01-17T05:22:45.951Z,3.10
2019-01-17T05:25:14.872Z,3.33
2019-01-17T05:27:42.124Z,3.43
2019-01-17T05:30:10.940Z,3.37
2019-01-17T05:32:38.208Z,4.00
2019-01-17T05:35:07.024Z,3.50
2019-01-17T05:37:34.293Z,3.87
2019-01-17T05:40:01.558Z,3.33
2019-01-17T05:42:28.841Z,3.90
2019-01-17T05:44:56.254Z,3.13
2019-01-17T05:47:23.518Z,3.70
2019-01-17T05:49:50.786Z,4.50
2019-01-17T05:52:18.027Z,4.03
2019-01-17T05:54:45.295Z,4.53
2019-01-17T05:57:12.561Z,5.20
2019-01-17T05:59:39.836Z,5.30
2019-01-17T06:02:07.096Z,4.83
2019-01-17T06:04:34.374Z,5.87
2019-01-17T06:07:01.652Z,3.83
2019-01-17T06:09:28.966Z,5.17
2019-01-17T06:11:57.877Z,4.57
2019-01-17T06:14:25.166Z,5.73
2019-01-17T06:16:52.508Z,4.97
2019-01-17T06:19:19.776Z,4.80
2019-01-17T06:21:47.082Z,3.83
2019-01-17T06:24:14.357Z,5.37
2019-01-17T06:26:41.618Z,4.30
2019-01-17T06:29:08.886Z,3.60
2019-01-17T06:31:36.142Z,4.17
2019-01-17T06:34:04.921Z,4.03
2019-01-17T06:36:32.203Z,4.40
2019-01-17T06:38:59.448Z,4.47
2019-01-17T06:41:26.698Z,4.53
2019-01-17T06:43:53.940Z,3.83
2019-01-17T06:46:21.232Z,4.70
2019-01-17T06:48:51.278Z,4.73
2019-01-17T06:51:18.561Z,4.77
2019-01-17T06:53:45.799Z,3.80
2019-01-17T06:56:13.054Z,4.77
2019-01-17T06:58:40.341Z,4.87
2019-01-17T07:01:07.578Z,4.70
2019-01-17T07:03:34.849Z,4.40
2019-01-17T07:06:02.119Z,5.10
2019-01-17T07:08:29.425Z,5.93
2019-01-17T07:10:56.677Z,5.57
2019-01-17T07:13:23.932Z,6.07
2019-01-17T07:15:51.193Z,5.23
2019-01-17T07:18:18.461Z,5.93
2019-01-17T07:20:45.728Z,4.63
2019-01-17T07:23:13.025Z,5.30
2019-01-17T07:25:41.090Z,5.77
2019-01-17T07:28:09.281Z,4.70
2019-01-17T07:30:36.595Z,4.43
2019-01-17T07:33:05.383Z,3.53
2019-01-17T07:35:32.670Z,4.40
2019-01-17T07:37:59.923Z,5.90
2019-01-17T07:40:27.218Z,5.23
2019-01-17T07:42:54.515Z,4.97
2019-01-17T07:45:23.646Z,3.90
2019-01-17T07:47:50.903Z,2.77
2019-01-17T07:50:18.169Z,3.17
2019-01-17T07:52:45.432Z,3.63
2019-01-17T07:55:14.247Z,3.80
2019-01-17T07:57:41.567Z,2.83
2019-01-17T08:00:10.344Z,3.13
2019-01-17T08:02:37.626Z,2.70
2019-01-17T08:05:05.337Z,2.43
2019-01-17T08:07:32.643Z,2.80
2019-01-17T08:09:59.922Z,2.93
2019-01-17T08:12:27.218Z,3.77
2019-01-17T08:14:54.466Z,2.30
2019-01-17T08:17:21.762Z,2.40
2019-01-17T08:19:49.060Z,1.87
2019-01-17T08:22:16.323Z,1.70
2019-01-17T08:24:43.584Z,1.97
2019-01-17T08:27:10.835Z,3.10
2019-01-17T08:29:38.106Z,2.70
2019-01-17T08:32:05.362Z,2.47
2019-01-17T08:34:32.625Z,2.77
2019-01-17T08:36:59.879Z,2.50
2019-01-17T08:39:27.153Z,2.03
2019-01-17T08:41:54.438Z,1.70
2019-01-17T08:44:21.698Z,2.43
2019-01-17T08:46:48.986Z,1.90
2019-01-17T08:49:16.238Z,2.30
2019-01-17T08:51:43.498Z,2.30
2019-01-17T08:54:10.738Z,1.80
2019-01-17T08:56:37.987Z,2.23
2019-01-17T08:59:05.262Z,1.53
2019-01-17T09:01:32.507Z,2.40
2019-01-17T09:03:59.782Z,1.57
2019-01-17T09:06:27.027Z,1.70
2019-01-17T09:08:54.287Z,2.10
2019-01-17T09:11:21.590Z,1.40
2019-01-17T09:13:48.847Z,1.37
2019-01-17T09:16:16.168Z,2.07
2019-01-17T09:18:43.410Z,2.60
2019-01-17T09:21:10.663Z,1.70
2019-01-17T09:23:37.925Z,2.57
2019-01-17T09:26:07.639Z,2.93
2019-01-17T09:28:34.234Z,2.57
2019-01-17T09:31:01.517Z,2.10
2019-01-17T09:33:28.934Z,2.57
2019-01-17T09:35:56.200Z,2.80
2019-01-17T09:38:23.479Z,2.77
2019-01-17T09:40:50.750Z,2.73
2019-01-17T09:43:18.006Z,1.90
2019-01-17T09:45:45.246Z,1.70
2019-01-17T09:48:12.531Z,2.17
2019-01-17T09:50:39.801Z,2.10
2019-01-17T09:53:07.034Z,2.20
2019-01-17T09:55:34.314Z,2.10
2019-01-17T09:58:01.598Z,1.93
2019-01-17T10:00:30.396Z,2.10
2019-01-17T10:02:57.632Z,2.97
2019-01-17T10:05:25.573Z,2.33
2019-01-17T10:07:52.865Z,2.20
2019-01-17T10:10:21.717Z,2.00
2019-01-17T10:12:50.495Z,2.50
2019-01-17T10:15:19.338Z,2.30
2019-01-17T10:17:53.890Z,2.70
2019-01-17T10:20:22.708Z,2.83
2019-01-17T10:22:51.514Z,2.20
2019-01-17T10:25:20.361Z,2.60
2019-01-17T10:27:51.870Z,2.07
2019-01-17T10:30:32.814Z,3.00
2019-01-17T10:33:13.686Z,3.13
2019-01-17T10:35:49.871Z,1.70
2019-01-17T10:38:24.402Z,1.50
2019-01-17T10:41:01.999Z,2.50
2019-01-17T10:43:47.382Z,2.07
2019-01-17T10:46:19.241Z,2.10
2019-01-17T10:48:48.031Z,2.13
2019-01-17T10:51:16.819Z,2.07
2019-01-17T10:53:48.546Z,2.30
2019-01-17T10:56:27.953Z,2.70
2019-01-17T10:58:56.929Z,1.90
2019-01-17T11:01:25.726Z,2.07
2019-01-17T11:04:11.131Z,3.43
2019-01-17T11:06:51.566Z,2.23
2019-01-17T11:09:36.814Z,2.50
2019-01-17T11:12:11.630Z,2.00
2019-01-17T11:14:40.449Z,2.80
2019-01-17T11:17:27.274Z,2.90
2019-01-17T11:20:05.051Z,2.77
2019-01-17T11:22:33.877Z,2.77
2019-01-17T11:25:02.685Z,3.03
2019-01-17T11:27:34.438Z,1.93
2019-01-17T11:30:03.249Z,2.70
2019-01-17T11:32:41.183Z,2.67
2019-01-17T11:35:12.883Z,2.47
2019-01-17T11:37:41.705Z,2.90
2019-01-17T11:40:10.486Z,2.63
2019-01-17T11:42:45.218Z,2.37
2019-01-17T11:45:14.014Z,2.73
2019-01-17T11:47:49.019Z,1.97
2019-01-17T11:50:23.973Z,1.70
2019-01-17T11:53:09.254Z,2.13
2019-01-17T11:55:50.014Z,1.70
2019-01-17T11:58:35.227Z,2.33
2019-01-17T12:01:09.962Z,1.97
2019-01-17T12:03:50.556Z,2.17
2019-01-17T12:06:17.811Z,2.60
2019-01-17T12:08:45.070Z,1.63
2019-01-17T12:11:12.335Z,2.97
2019-01-17T12:13:39.599Z,3.20
2019-01-17T12:16:06.847Z,4.30
2019-01-17T12:18:34.103Z,3.00
2019-01-17T12:21:01.364Z,2.57
2019-01-17T12:23:28.655Z,1.47
2019-01-17T12:25:55.954Z,1.83
2019-01-17T12:28:23.235Z,1.60
2019-01-17T12:30:50.526Z,2.40
2019-01-17T12:33:17.802Z,2.00
2019-01-17T12:35:45.351Z,3.00
2019-01-17T12:38:12.659Z,2.63
2019-01-17T12:40:39.955Z,2.40
2019-01-17T12:43:07.222Z,2.17
2019-01-17T12:45:34.487Z,2.17
2019-01-17T12:48:01.821Z,1.70
2019-01-17T12:50:29.089Z,1.70
2019-01-17T12:52:56.371Z,3.37
2019-01-17T12:55:23.624Z,2.17
2019-01-17T12:57:51.051Z,2.10
2019-01-17T13:00:19.950Z,2.10
2019-01-17T13:02:47.191Z,1.93
2019-01-17T13:47:54.569Z,2.33
2019-01-17T13:50:21.923Z,1.90
2019-01-17T13:52:49.205Z,2.80
2019-01-17T13:55:18.028Z,2.20
2019-01-17T13:57:45.285Z,2.30
2019-01-17T14:00:14.089Z,2.50
2019-01-17T14:02:41.429Z,2.50
2019-01-17T14:05:08.827Z,1.97
2019-01-17T14:07:36.083Z,2.10
2019-01-17T14:10:04.875Z,2.57
2019-01-17T14:12:32.149Z,2.13
2019-01-17T14:14:59.426Z,2.37
2019-01-17T14:17:26.693Z,1.93
2019-01-17T14:19:54.049Z,2.87
2019-01-17T14:22:21.449Z,2.17
2019-01-17T14:24:48.791Z,2.60
2019-01-17T14:27:16.043Z,2.03
2019-01-17T14:29:43.326Z,2.07
2019-01-17T14:32:10.578Z,2.57
2019-01-17T14:34:37.838Z,2.60
2019-01-17T14:37:05.111Z,2.90
2019-01-17T14:39:32.377Z,2.60
2019-01-17T14:41:59.638Z,2.80
2019-01-17T14:44:26.898Z,2.23
2019-01-17T14:46:54.180Z,2.20
2019-01-17T14:49:21.439Z,2.43
2019-01-17T14:51:48.743Z,2.73
2019-01-17T14:54:16.007Z,2.63
2019-01-17T14:56:43.271Z,3.10
2019-01-17T14:59:10.526Z,2.33
2019-01-17T15:01:37.803Z,2.27
2019-01-17T15:04:05.067Z,2.17
2019-01-17T15:06:32.347Z,1.50
2019-01-17T15:08:59.654Z,1.63
2019-01-17T15:11:26.922Z,1.73
2019-01-17T15:13:54.180Z,2.13
2019-01-17T15:16:21.743Z,2.17
2019-01-17T15:18:50.703Z,2.27
2019-01-17T15:21:20.997Z,1.97
2019-01-17T15:23:49.517Z,1.93
2019-01-17T15:26:16.867Z,2.10
2019-01-17T15:28:44.171Z,1.80
2019-01-17T15:31:11.447Z,2.33
2019-01-17T15:33:38.706Z,1.80
2019-01-17T15:36:05.959Z,1.83
2019-01-17T15:38:33.266Z,1.97
2019-01-17T15:41:00.568Z,2.30
2019-01-17T15:43:27.834Z,2.30
2019-01-17T15:45:55.239Z,3.13
2019-01-17T15:48:22.531Z,2.20
2019-01-17T15:50:49.766Z,2.03
2019-01-17T15:53:17.394Z,2.23
2019-01-17T15:55:44.706Z,1.87
2019-01-17T15:58:11.979Z,2.00
2019-01-17T16:00:39.224Z,2.80
2019-01-17T16:03:06.523Z,1.97
2019-01-17T16:05:33.796Z,2.20
2019-01-17T16:08:01.062Z,2.27
2019-01-17T16:10:28.323Z,2.30
2019-01-17T16:12:55.583Z,2.00
2019-01-17T16:15:24.575Z,2.37
2019-01-17T16:17:51.987Z,2.13
2019-01-17T16:20:19.242Z,1.93
2019-01-17T16:22:48.062Z,2.20
2019-01-17T16:25:17.034Z,1.73
2019-01-17T16:27:44.345Z,1.50
2019-01-17T16:30:13.159Z,2.50
2019-01-17T16:32:40.445Z,1.90
2019-01-17T16:35:07.800Z,1.60
2019-01-17T16:37:35.044Z,1.63
2019-01-17T16:40:02.355Z,1.50
2019-01-17T16:42:29.654Z,1.50
2019-01-17T16:44:56.912Z,1.50
2019-01-17T16:47:24.151Z,1.70
2019-01-17T16:49:51.438Z,2.33
2019-01-17T16:52:18.707Z,1.80
2019-01-17T16:54:45.966Z,1.73
2019-01-17T16:57:13.209Z,2.17
2019-01-17T16:59:40.462Z,2.83
2019-01-17T17:02:07.766Z,2.53
2019-01-17T17:04:35.028Z,3.57
2019-01-17T17:07:05.026Z,2.80
2019-01-17T17:09:32.339Z,2.57
2019-01-17T17:11:59.621Z,3.33
2019-01-17T17:14:26.881Z,2.73
2019-01-17T17:16:54.166Z,2.87
2019-01-17T17:19:21.508Z,1.70
2019-01-17T17:21:48.744Z,1.93
2019-01-17T17:24:16.063Z,2.00
2019-01-17T17:26:43.309Z,2.20
2019-01-17T17:29:10.575Z,3.40
2019-01-17T17:31:37.860Z,1.67
2019-01-17T17:34:05.110Z,1.97
2019-01-17T17:36:32.370Z,1.70
2019-01-17T17:38:59.631Z,2.17
2019-01-17T17:41:26.891Z,1.97
2019-01-17T17:43:54.146Z,1.83
2019-01-17T17:46:21.407Z,2.27
2019-01-17T17:48:48.663Z,2.70
2019-01-17T17:51:15.923Z,2.00
2019-01-17T17:53:43.193Z,2.10
2019-01-17T17:56:12.077Z,2.30
2019-01-17T17:58:39.370Z,1.60
2019-01-17T18:01:08.282Z,2.20
2019-01-17T18:03:35.532Z,2.07
2019-01-17T18:06:02.810Z,2.40
2019-01-17T18:08:30.042Z,2.50
2019-01-17T18:10:57.339Z,2.83
2019-01-17T18:13:24.597Z,2.10
2019-01-17T18:15:51.839Z,1.80
2019-01-17T18:18:19.113Z,1.80
2019-01-17T18:20:46.346Z,2.00
2019-01-17T18:23:13.619Z,2.73
2019-01-17T18:25:40.886Z,2.77
2019-01-17T18:28:08.896Z,3.23
2019-01-17T18:30:37.098Z,2.37
2019-01-17T18:33:04.388Z,3.20
2019-01-17T18:35:31.641Z,4.47
2019-01-17T18:37:58.903Z,2.70
2019-01-17T18:40:26.179Z,3.03
2019-01-17T18:42:53.421Z,3.57
2019-01-17T18:45:22.251Z,2.73
2019-01-17T18:47:49.494Z,3.00
2019-01-17T18:50:18.307Z,3.43
2019-01-17T18:52:47.119Z,3.03
2019-01-17T18:55:14.381Z,2.43
2019-01-17T18:57:41.731Z,4.57
2019-01-17T19:00:12.166Z,2.87
2019-01-17T19:02:39.443Z,4.20
2019-01-17T19:05:08.227Z,3.83
2019-01-17T19:07:35.506Z,3.80
2019-01-17T19:10:04.533Z,3.07
2019-01-17T19:12:31.790Z,2.87
2019-01-17T19:14:59.044Z,3.43
2019-01-17T19:17:26.324Z,1.63
2019-01-17T19:19:53.577Z,1.30
2019-01-17T19:22:20.851Z,1.20
2019-01-17T19:24:48.142Z,1.30
2019-01-17T19:27:15.414Z,1.30
2019-01-17T19:29:42.685Z,1.73
2019-01-17T19:32:09.968Z,1.80
2019-01-17T19:34:37.222Z,1.60
2019-01-17T19:37:04.523Z,2.10
2019-01-17T19:39:31.836Z,2.00
2019-01-17T19:41:59.116Z,2.07
2019-01-17T19:44:26.375Z,2.20
2019-01-17T19:46:53.642Z,2.00
2019-01-17T19:49:20.882Z,2.93
2019-01-17T19:51:48.155Z,2.00
2019-01-17T19:54:15.434Z,3.20
2019-01-17T19:56:42.701Z,3.00
2019-01-17T19:59:09.966Z,2.37
2019-01-17T20:01:37.252Z,2.23
2019-01-17T20:04:06.378Z,2.70
2019-01-17T20:06:33.670Z,2.30
2019-01-17T20:09:04.017Z,2.40
2019-01-17T20:11:31.287Z,2.27
2019-01-17T20:13:58.526Z,2.83
2019-01-17T20:16:25.794Z,2.57
2019-01-17T20:18:53.047Z,2.17
2019-01-17T20:21:20.310Z,2.60
2019-01-17T20:23:47.558Z,2.60
2019-01-17T20:26:16.460Z,3.13
2019-01-17T20:28:43.846Z,3.10
2019-01-17T20:31:11.150Z,2.60
2019-01-17T20:33:38.406Z,2.80
2019-01-17T20:36:06.234Z,3.13
2019-01-17T20:38:33.608Z,3.43
2019-01-17T20:41:00.872Z,2.37
2019-01-17T20:43:28.129Z,3.80
2019-01-17T20:45:55.406Z,2.60
2019-01-17T20:48:22.668Z,2.20
2019-01-17T20:50:49.928Z,2.10
2019-01-17T20:53:17.571Z,2.23
2019-01-17T20:55:45.346Z,2.10
2019-01-17T20:58:12.611Z,1.73
2019-01-17T21:00:41.387Z,2.00
2019-01-17T21:03:10.047Z,2.57
2019-01-17T21:05:37.301Z,2.50
2019-01-17T21:08:06.086Z,1.90
2019-01-17T21:10:33.391Z,1.53
2019-01-17T21:13:00.655Z,1.83
2019-01-17T21:15:27.912Z,1.97
2019-01-17T21:17:55.163Z,2.37
2019-01-17T21:20:22.439Z,2.47
2019-01-17T21:22:49.689Z,2.77
2019-01-17T21:25:18.302Z,2.33
2019-01-17T21:27:45.606Z,2.50
2019-01-17T21:30:17.095Z,2.50
2019-01-17T21:32:44.330Z,2.97
2019-01-17T21:35:12.282Z,3.80
2019-01-17T21:37:39.533Z,3.03
2019-01-17T21:40:08.315Z,2.93
2019-01-17T21:42:35.577Z,4.60
2019-01-17T21:45:04.381Z,2.70
2019-01-17T21:47:31.660Z,3.30
2019-01-17T21:49:58.903Z,3.63
2019-01-17T21:52:26.188Z,3.33
2019-01-17T21:54:53.440Z,2.83
2019-01-17T21:57:20.726Z,3.83
2019-01-17T21:59:47.988Z,2.70
2019-01-17T22:02:15.262Z,2.50
2019-01-17T22:04:42.535Z,2.90
2019-01-17T22:07:09.804Z,2.90
2019-01-17T22:09:37.067Z,2.97
2019-01-17T22:12:04.984Z,3.17
2019-01-17T22:14:32.271Z,3.97
2019-01-17T22:16:59.534Z,3.97
2019-01-17T22:19:26.821Z,3.30
2019-01-17T22:21:54.085Z,2.93
2019-01-17T22:24:21.342Z,3.47
2019-01-17T22:26:48.607Z,2.97
2019-01-17T22:29:16.363Z,3.03
2019-01-17T22:31:43.615Z,3.70
2019-01-17T22:34:10.936Z,3.50
2019-01-17T22:36:38.189Z,3.70
2019-01-17T22:39:06.299Z,3.23
2019-01-17T22:41:33.588Z,2.70
2019-01-17T22:44:02.489Z,3.07
2019-01-17T22:46:29.780Z,3.17
2019-01-17T22:48:57.050Z,3.93
2019-01-17T22:51:24.326Z,2.80
2019-01-17T22:53:51.564Z,2.90
2019-01-17T22:56:18.827Z,2.73
2019-01-17T22:58:46.079Z,3.53
2019-01-17T23:01:14.893Z,2.60
2019-01-17T23:03:42.180Z,3.40
2019-01-17T23:06:09.494Z,3.37
2019-01-17T23:08:36.911Z,2.90
2019-01-17T23:11:04.182Z,4.10
2019-01-17T23:13:31.447Z,3.37
2019-01-17T23:15:58.691Z,4.13
2019-01-17T23:18:25.970Z,2.80
2019-01-17T23:20:53.231Z,3.27
2019-01-17T23:23:20.498Z,3.10
2019-01-17T23:25:47.766Z,3.03
2019-01-17T23:28:15.020Z,3.57
2019-01-17T23:30:42.336Z,2.73
2019-01-17T23:33:09.654Z,4.53
2019-01-17T23:35:38.430Z,2.57
2019-01-17T23:38:05.709Z,3.10
2019-01-17T23:40:33.002Z,3.67
2019-01-17T23:43:00.306Z,3.40
2019-01-17T23:45:27.592Z,3.27
2019-01-17T23:47:54.922Z,3.47
2019-01-17T23:50:22.211Z,3.47
2019-01-17T23:52:49.491Z,3.77
2019-01-17T23:55:16.766Z,4.97
2019-01-17T23:57:44.021Z,3.03
